Time;durP1;ratioP1;P1;durP2;ratioP2;P2;SDS_P1;SDS_P2;PMS_P1;PMS_P2;Temp;Humidity;BMP_temperature;BMP_pressure;BME280_temperature;BME280_humidity;BME280_pressure;Samples;Min_cycle;Max_cycle;Signal;HPM_P1;HPM_P2
2023/12/29 00:01:31;;;;;;;0.63;0.53;;;;;;;;;;20950631;28;20217;-81
2023/12/29 00:11:33;;;;;;;0.97;0.60;;;;;;;;;;20943114;28;20225;-83
2023/12/29 00:21:36;;;;;;;0.53;0.50;;;;;;;;;;20978261;28;20218;-81
2023/12/29 00:31:37;;;;;;;0.43;0.40;;;;;;;;;;20977159;28;20270;-81
2023/12/29 00:41:40;;;;;;;0.90;0.80;;;9.00;99.90;;;;;;20936690;28;20279;-81
2023/12/29 00:51:42;;;;;;;1.77;0.83;;;;;;;;;;20943392;28;20224;-80
2023/12/29 01:01:55;;;;;;;1.83;1.10;;;;;;;;;;20938923;28;20218;-84
2023/12/29 01:12:03;;;;;;;1.40;0.73;;;;;;;;;;20943055;28;20737;-81
2023/12/29 01:22:05;;;;;;;1.17;0.73;;;;;;;;;;20922960;28;20214;-81
2023/12/29 01:32:07;;;;;;;1.00;0.70;;;;;;;;;;20942646;28;20278;-81
2023/12/29 01:42:11;;;;;;;0.83;0.70;;;;;;;;;;20966850;28;20205;-81
2023/12/29 01:52:13;;;;;;;0.97;0.70;;;;;;;;;;20969875;28;20248;-82
2023/12/29 02:02:15;;;;;;;1.47;0.73;;;;;;;;;;20990095;28;20220;-81
2023/12/29 02:12:17;;;;;;;0.53;0.47;;;8.90;99.90;;;;;;20952115;28;20295;-80
2023/12/29 02:22:19;;;;;;;1.00;0.60;;;;;;;;;;20934985;28;20312;-82
2023/12/29 02:32:22;;;;;;;0.73;0.50;;;8.90;99.90;;;;;;20943918;28;20686;-81
2023/12/29 02:42:25;;;;;;;1.60;0.60;;;;;;;;;;20921776;28;20252;-82
2023/12/29 02:52:27;;;;;;;0.73;0.50;;;;;;;;;;20950294;28;20229;-82
2023/12/29 03:02:29;;;;;;;0.80;0.40;;;;;;;;;;20937898;28;20597;-81
2023/12/29 03:12:31;;;;;;;0.67;0.40;;;;;;;;;;20909279;28;21062;-83
2023/12/29 03:22:33;;;;;;;0.30;0.30;;;;;;;;;;20933908;28;20283;-81
2023/12/29 03:32:34;;;;;;;0.60;0.43;;;;;;;;;;20928199;28;20946;-82
2023/12/29 03:42:36;;;;;;;0.70;0.40;;;;;;;;;;20999804;28;20217;-81
2023/12/29 03:52:38;;;;;;;0.83;0.53;;;;;;;;;;20931862;28;20216;-80
2023/12/29 04:02:40;;;;;;;1.20;0.60;;;9.30;99.90;;;;;;20923124;28;20623;-82
2023/12/29 04:12:42;;;;;;;1.37;0.70;;;;;;;;;;20982975;28;20221;-80
2023/12/29 04:22:44;;;;;;;1.07;0.60;;;;;;;;;;20932724;28;20267;-79
2023/12/29 04:32:46;;;;;;;1.20;0.60;;;;;;;;;;20963951;28;20280;-79
2023/12/29 04:42:47;;;;;;;0.80;0.50;;;;;;;;;;20970710;28;20279;-79
2023/12/29 04:52:49;;;;;;;1.00;0.50;;;;;;;;;;20968814;28;20271;-79
2023/12/29 05:02:51;;;;;;;1.20;0.70;;;;;;;;;;20973680;28;20234;-80
2023/12/29 05:12:53;;;;;;;1.10;0.60;;;;;;;;;;20999752;28;20241;-78
2023/12/29 05:22:54;;;;;;;0.90;0.60;;;;;;;;;;20958657;28;20222;-78
2023/12/29 05:32:56;;;;;;;0.57;0.37;;;;;;;;;;20984067;28;20767;-78
2023/12/29 05:42:57;;;;;;;0.37;0.30;;;;;;;;;;20959801;28;20213;-79
2023/12/29 05:52:59;;;;;;;0.77;0.50;;;;;;;;;;20961614;28;20218;-80
2023/12/29 06:03:01;;;;;;;1.67;0.40;;;;;;;;;;20934248;28;20224;-80
2023/12/29 06:13:03;;;;;;;0.63;0.50;;;;;;;;;;20952349;28;20217;-80
2023/12/29 06:23:04;;;;;;;0.40;0.30;;;;;;;;;;20943702;28;20304;-80
2023/12/29 06:33:07;;;;;;;0.47;0.40;;;;;;;;;;20930236;28;20541;-81
2023/12/29 06:43:09;;;;;;;0.43;0.30;;;;;;;;;;20967404;28;20210;-82
2023/12/29 06:53:10;;;;;;;0.53;0.23;;;;;;;;;;20964337;28;20218;-80
2023/12/29 07:03:14;;;;;;;0.37;0.23;;;;;;;;;;20922700;28;20287;-80
2023/12/29 07:13:16;;;;;;;0.70;0.47;;;;;;;;;;20959246;28;20229;-81
2023/12/29 07:23:17;;;;;;;0.20;0.20;;;;;;;;;;20946124;28;20206;-80
2023/12/29 07:33:19;;;;;;;0.20;0.20;;;;;;;;;;20948119;28;20217;-78
2023/12/29 07:43:21;;;;;;;0.43;0.30;;;;;;;;;;20977851;28;20217;-80
2023/12/29 07:53:23;;;;;;;0.50;0.30;;;;;;;;;;20968130;28;20213;-80
2023/12/29 08:03:25;;;;;;;0.87;0.30;;;;;;;;;;20993568;28;20217;-80
2023/12/29 08:13:27;;;;;;;0.50;0.40;;;;;;;;;;20973503;28;20277;-80
2023/12/29 08:23:28;;;;;;;1.00;0.37;;;;;;;;;;21014024;28;20201;-80
2023/12/29 08:33:30;;;;;;;0.20;0.20;;;;;;;;;;20981117;28;20225;-80
2023/12/29 08:43:32;;;;;;;0.57;0.30;;;;;;;;;;20949192;28;20205;-81
2023/12/29 08:53:35;;;;;;;0.37;0.30;;;;;;;;;;20965280;28;20288;-80
2023/12/29 09:03:37;;;;;;;1.37;0.40;;;;;;;;;;20979597;28;20221;-80
2023/12/29 09:13:39;;;;;;;0.90;0.40;;;;;;;;;;20987385;28;20268;-80
2023/12/29 09:23:41;;;;;;;0.50;0.37;;;;;;;;;;20939379;28;20232;-82
2023/12/29 09:33:43;;;;;;;0.20;0.20;;;;;;;;;;20970104;28;20225;-80
2023/12/29 09:43:46;;;;;;;0.50;0.30;;;;;;;;;;21000462;28;20279;-80
2023/12/29 09:53:48;;;;;;;0.40;0.20;;;;;;;;;;21001362;28;20226;-82
2023/12/29 10:03:49;;;;;;;0.50;0.30;;;;;;;;;;20902946;28;1119272;-79
2023/12/29 10:13:54;;;;;;;0.27;0.23;;;10.20;99.90;;;;;;20954555;28;20226;-79
2023/12/29 10:23:59;;;;;;;1.30;0.40;;;;;;;;;;20973716;28;20691;-78
2023/12/29 10:34:31;;;;;;;0.67;0.30;;;10.40;99.90;;;;;;20961486;28;20233;-78
2023/12/29 10:44:33;;;;;;;0.50;0.30;;;10.90;99.90;;;;;;20958243;28;20226;-82
2023/12/29 10:54:35;;;;;;;0.50;0.40;;;;;;;;;;20948174;28;20221;-79
2023/12/29 11:04:37;;;;;;;1.00;0.40;;;;;;;;;;20966570;28;20359;-79
2023/12/29 11:14:42;;;;;;;2.33;0.37;;;11.20;99.90;;;;;;20944643;28;20234;-80
2023/12/29 11:24:47;;;;;;;0.40;0.35;;;11.50;99.90;;;;;;20954913;28;20213;-81
2023/12/29 11:34:56;;;;;;;0.83;0.40;;;11.50;99.90;;;;;;20974037;28;20686;-80
2023/12/29 11:44:57;;;;;;;0.20;0.20;;;;;;;;;;20977053;28;20232;-79
2023/12/29 11:55:17;;;;;;;0.63;0.30;;;11.80;99.90;;;;;;20987483;28;20209;-79
2023/12/29 12:05:44;;;;;;;1.27;0.40;;;11.60;99.90;;;;;;20952783;28;20581;-81
2023/12/29 12:15:46;;;;;;;0.60;0.40;;;;;;;;;;20978330;28;20201;-79
2023/12/29 12:25:51;;;;;;;0.33;0.23;;;11.40;99.90;;;;;;20970376;28;20311;-80
2023/12/29 12:36:00;;;;;;;0.50;0.30;;;11.20;99.90;;;;;;20985149;28;20209;-80
2023/12/29 12:46:03;;;;;;;0.90;0.53;;;11.10;99.90;;;;;;21004593;28;20625;-79
2023/12/29 12:56:06;;;;;;;1.20;0.50;;;11.10;99.90;;;;;;20961695;28;20234;-79
2023/12/29 13:06:08;;;;;;;0.70;0.40;;;;;;;;;;20992721;28;20225;-80
2023/12/29 13:16:10;;;;;;;0.40;0.30;;;;;;;;;;20988364;28;20206;-80
2023/12/29 13:26:12;;;;;;;0.37;0.37;;;;;;;;;;20955992;28;20624;-78
2023/12/29 13:36:25;;;;;;;0.43;0.43;;;;;;;;;;20958870;28;20226;-78
2023/12/29 13:46:28;;;;;;;0.73;0.40;;;;;;;;;;20973517;28;20247;-78
2023/12/29 13:56:30;;;;;;;0.27;0.13;;;;;;;;;;20958617;28;20264;-79
2023/12/29 14:06:36;;;;;;;1.27;0.30;;;;;;;;;;20977105;28;20218;-80
2023/12/29 14:16:41;;;;;;;0.40;0.30;;;10.90;99.90;;;;;;20988202;28;20205;-80
2023/12/29 14:26:52;;;;;;;0.70;0.37;;;10.80;99.90;;;;;;20985242;28;20221;-80
2023/12/29 14:36:54;;;;;;;0.60;0.40;;;;;;;;;;20979905;28;20282;-80
2023/12/29 14:46:56;;;;;;;1.30;0.40;;;;;;;;;;20985865;28;20214;-80
2023/12/29 14:56:58;;;;;;;0.30;0.30;;;;;;;;;;21002246;28;20229;-82
2023/12/29 15:07:00;;;;;;;0.60;0.20;;;;;;;;;;20991190;28;20583;-80
2023/12/29 15:17:01;;;;;;;0.30;0.30;;;;;;;;;;20923042;28;20210;-80
2023/12/29 15:27:03;;;;;;;0.30;0.30;;;;;;;;;;20913695;28;20276;-80
2023/12/29 15:37:05;;;;;;;0.20;0.20;;;;;;;;;;20956210;28;20694;-81
2023/12/29 15:47:07;;;;;;;0.33;0.20;;;;;;;;;;20948635;28;20677;-80
2023/12/29 15:57:09;;;;;;;0.30;0.30;;;;;;;;;;20969818;28;20239;-80
2023/12/29 16:07:13;;;;;;;0.53;0.40;;;;;;;;;;20981672;28;20280;-82
2023/12/29 16:17:15;;;;;;;6.33;3.27;;;;;;;;;;20980991;28;20222;-82
2023/12/29 16:27:16;;;;;;;6.23;3.33;;;;;;;;;;20968564;28;20248;-80
2023/12/29 16:37:18;;;;;;;3.13;1.63;;;;;;;;;;20973381;28;20206;-79
2023/12/29 16:47:20;;;;;;;0.30;0.27;;;;;;;;;;20943535;28;20233;-78
2023/12/29 16:57:22;;;;;;;0.30;0.30;;;;;;;;;;20943974;28;20712;-81
2023/12/29 17:07:23;;;;;;;0.70;0.30;;;;;;;;;;20967469;28;20217;-80
2023/12/29 17:17:25;;;;;;;0.53;0.37;;;;;;;;;;20980966;28;20213;-81
2023/12/29 17:27:27;;;;;;;0.37;0.30;;;;;;;;;;20966550;28;20772;-80
2023/12/29 17:37:31;;;;;;;0.30;0.30;;;;;;;;;;20997305;28;20209;-80
2023/12/29 17:47:33;;;;;;;0.83;0.40;;;;;;;;;;20981540;28;20217;-79
2023/12/29 17:57:39;;;;;;;0.37;0.37;;;;;;;;;;20982904;28;20217;-82
2023/12/29 18:07:41;;;;;;;0.77;0.40;;;;;;;;;;20993707;28;20213;-80
2023/12/29 18:17:43;;;;;;;0.30;0.30;;;;;;;;;;20974045;28;20267;-80
2023/12/29 18:27:45;;;;;;;1.60;0.50;;;;;;;;;;20944804;28;20210;-80
2023/12/29 18:37:47;;;;;;;0.60;0.50;;;;;;;;;;20964449;28;20260;-80
2023/12/29 18:47:49;;;;;;;0.97;0.30;;;;;;;;;;20974539;28;20241;-80
2023/12/29 18:57:50;;;;;;;1.50;0.40;;;;;;;;;;20979379;28;20279;-82
2023/12/29 19:07:52;;;;;;;1.47;0.30;;;;;;;;;;20958795;28;20246;-82
2023/12/29 19:17:54;;;;;;;0.90;0.47;;;;;;;;;;20971456;28;20523;-80
2023/12/29 19:27:59;;;;;;;0.33;0.30;;;;;;;;;;20973803;28;20260;-81
2023/12/29 19:38:03;;;;;;;0.30;0.20;;;;;;;;;;20980769;28;20246;-80
2023/12/29 19:48:05;;;;;;;1.10;0.47;;;;;;;;;;20939713;28;20240;-80
2023/12/29 19:58:07;;;;;;;0.33;0.20;;;;;;;;;;20984706;28;20209;-81
2023/12/29 20:08:10;;;;;;;0.57;0.30;;;;;;;;;;20991738;28;20247;-81
2023/12/29 20:18:12;;;;;;;1.33;0.40;;;;;;;;;;20992742;28;20205;-81
2023/12/29 20:28:14;;;;;;;0.10;0.10;;;;;;;;;;21015492;28;20278;-82
2023/12/29 20:38:16;;;;;;;1.17;0.40;;;;;;;;;;20995374;28;20582;-80
2023/12/29 20:48:17;;;;;;;3.10;0.87;;;;;;;;;;20978785;28;20224;-80
2023/12/29 20:58:19;;;;;;;0.53;0.30;;;;;;;;;;20987442;28;20213;-78
2023/12/29 21:08:21;;;;;;;2.23;0.20;;;;;;;;;;20998739;28;20252;-80
2023/12/29 21:18:23;;;;;;;0.33;0.20;;;;;;;;;;20983064;28;20251;-79
2023/12/29 21:28:24;;;;;;;0.30;0.30;;;;;;;;;;20991989;28;20216;-79
2023/12/29 21:38:26;;;;;;;0.93;0.37;;;;;;;;;;20975167;28;20209;-78
2023/12/29 21:48:28;;;;;;;1.60;0.40;;;;;;;;;;20967256;28;20225;-78
2023/12/29 21:58:30;;;;;;;0.47;0.23;;;;;;;;;;20964507;28;20265;-80
2023/12/29 22:08:32;;;;;;;1.60;0.43;;;;;;;;;;20972496;28;20208;-80
2023/12/29 22:18:34;;;;;;;0.30;0.30;;;;;;;;;;20954065;28;20222;-79
2023/12/29 22:28:36;;;;;;;0.20;0.20;;;;;;;;;;20957550;28;20221;-79
2023/12/29 22:38:37;;;;;;;0.83;0.30;;;;;;;;;;20948658;28;20682;-79
2023/12/29 22:48:39;;;;;;;2.27;0.37;;;;;;;;;;20959471;28;20218;-78
2023/12/29 22:58:41;;;;;;;0.23;0.23;;;;;;;;;;20967403;28;20205;-79
2023/12/29 23:08:43;;;;;;;0.40;0.30;;;;;;;;;;20939512;28;20709;-79
2023/12/29 23:18:45;;;;;;;0.87;0.30;;;;;;;;;;20965137;28;20700;-80
2023/12/29 23:28:46;;;;;;;0.43;0.37;;;;;;;;;;20934280;28;20293;-79
2023/12/29 23:38:48;;;;;;;1.03;0.37;;;;;;;;;;20939343;28;20209;-80
2023/12/29 23:48:50;;;;;;;0.50;0.30;;;;;;;;;;20951041;28;20403;-79
2023/12/29 23:58:52;;;;;;;1.80;0.40;;;;;;;;;;20964664;28;20212;-79
